This is the latest recevied weather packets stored in our database for station/object LA1HSA-13. If no packets are shown the sender has not sent any weather packets the latest 10 day(s).
| Time | Temp. | Humidity | Pressure | Rain* | Wind** | Luminosity | Snow |
|---|---|---|---|---|---|---|---|
| 1777500023 | 8.33° C | 75% | 1027.8 hPa | 0 mm | - | - | - |
| 1777499403 | 8.89° C | 74% | 1027.7 hPa | 0 mm | - | - | - |
| 1777498806 | 9.44° C | 72% | 1027.8 hPa | 0 mm | - | - | - |
| 1777498203 | 10° C | 71% | 1027.5 hPa | 0 mm | - | - | - |
| 1777497603 | 10° C | 71% | 1027.4 hPa | 0 mm | - | - | - |
| 1777497004 | 10° C | 70% | 1027.6 hPa | 0 mm | - | - | - |
| 1777496403 | 9.44° C | 72% | 1027.8 hPa | 0 mm | - | - | - |
| 1777495804 | 10° C | 69% | 1027.7 hPa | 0 mm | - | - | - |
| 1777495203 | 10° C | 68% | 1027.5 hPa | 0 mm | - | - | - |
| 1777494604 | 10.56° C | 67% | 1027.6 hPa | 0 mm | - | - | - |
| 1777494003 | 11.11° C | 66% | 1027.4 hPa | 0 mm | - | - | - |
| 1777493403 | 11.11° C | 66% | 1027.5 hPa | 0 mm | - | - | - |
| 1777492803 | 10.56° C | 66% | 1027.4 hPa | 0 mm | - | - | - |
| 1777492203 | 11.67° C | 64% | 1027.4 hPa | 0 mm | - | - | - |
| 1777491604 | 11.11° C | 66% | 1027.4 hPa | 0 mm | - | - | - |
| 1777491003 | 11.11° C | 65% | 1027.5 hPa | 0 mm | - | - | - |
| 1777490403 | 12.22° C | 62% | 1027.4 hPa | 0 mm | - | - | - |
| 1777489803 | 12.22° C | 61% | 1027.3 hPa | 0 mm | - | - | - |
| 1777489203 | 12.78° C | 60% | 1027.3 hPa | 0 mm | - | - | - |
| 1777488603 | 13.33° C | 57% | 1026.9 hPa | 0 mm | - | - | - |
| 1777488004 | 13.89° C | 55% | 1026.9 hPa | 0 mm | - | - | - |
| 1777487403 | 14.44° C | 53% | 1026.8 hPa | 0 mm | - | - | - |
| 1777486803 | 14.44° C | 54% | 1027 hPa | 0 mm | - | - | - |
| 1777486203 | 15° C | 51% | 1026.9 hPa | 0 mm | - | - | - |
| 1777485604 | 15.56° C | 50% | 1026.8 hPa | 0 mm | - | - | - |
* Rain latest hour (hover to see other rain measurements)
** Current wind speed in m/s (hover to see current wind gust speed)